Time;durP1;ratioP1;P1;durP2;ratioP2;P2;SDS_P1;SDS_P2;PMS_P1;PMS_P2;Temp;Humidity;BMP_temperature;BMP_pressure;BME280_temperature;BME280_humidity;BME280_pressure;Samples;Min_cycle;Max_cycle;Signal;HPM_P1;HPM_P2
2022/07/06 00:01:55;;;;;;;3.88;2.17;;;;;;;12.10;89.41;102481.69;4990236;28;20091;-72
2022/07/06 00:04:21;;;;;;;4.32;2.10;;;;;;;12.03;89.93;102479.34;4991325;28;20077;-72
2022/07/06 00:06:47;;;;;;;3.50;2.03;;;;;;;12.08;89.82;102480.88;4991150;28;20042;-72
2022/07/06 00:09:13;;;;;;;5.60;2.13;;;;;;;12.18;89.76;102476.00;4991145;28;20062;-72
2022/07/06 00:11:38;;;;;;;4.47;2.10;;;;;;;12.11;89.77;102471.88;4989736;28;20035;-72
2022/07/06 00:14:06;;;;;;;6.78;2.55;;;;;;;12.04;90.53;102478.38;4989844;28;20106;-72
2022/07/06 00:16:31;;;;;;;4.90;1.83;;;;;;;12.12;90.53;102469.13;4989557;28;20049;-72
2022/07/06 00:18:57;;;;;;;7.97;2.20;;;;;;;12.21;89.92;102472.31;4989810;28;20054;-72
2022/07/06 00:21:23;;;;;;;2.78;1.90;;;;;;;12.30;89.74;102477.25;4973446;28;20110;-73
2022/07/06 00:23:48;;;;;;;5.43;2.20;;;;;;;12.30;89.81;102466.53;4989237;28;20035;-72
2022/07/06 00:26:18;;;;;;;3.70;1.75;;;;;;;12.37;89.72;102481.41;4989488;28;20030;-72
2022/07/06 00:28:44;;;;;;;7.47;2.03;;;;;;;12.37;89.66;102476.06;4988842;28;20034;-73
2022/07/06 00:31:10;;;;;;;4.70;1.83;;;;;;;12.36;89.77;102477.88;4973027;28;20054;-72
2022/07/06 00:33:35;;;;;;;5.45;1.58;;;;;;;12.32;88.95;102478.94;4989252;28;20366;-74
2022/07/06 00:36:01;;;;;;;2.25;1.60;;;;;;;12.38;89.26;102481.31;4989753;28;20070;-72
2022/07/06 00:38:27;;;;;;;5.35;2.00;;;;;;;12.41;89.28;102486.56;4990341;28;20019;-72
2022/07/06 00:40:53;;;;;;;3.65;1.85;;;;;;;12.38;89.96;102475.97;4989815;28;20070;-71
2022/07/06 00:43:18;;;;;;;3.83;2.00;;;;;;;12.46;90.47;102481.00;4988637;28;20035;-72
2022/07/06 00:45:45;;;;;;;3.45;2.10;;;;;;;12.30;90.63;102475.47;4989418;28;20042;-72
2022/07/06 00:48:12;;;;;;;6.03;1.70;;;;;;;12.43;90.38;102468.63;4987852;28;20023;-71
2022/07/06 00:50:39;;;;;;;3.15;1.83;;;;;;;12.49;90.11;102475.50;4989658;28;20031;-72
2022/07/06 00:53:07;;;;;;;5.97;2.08;;;;;;;12.47;90.02;102474.69;4988059;28;20023;-72
2022/07/06 00:55:35;;;;;;;6.13;2.35;;;;;;;12.53;89.77;102473.56;4988414;28;20030;-72
2022/07/06 00:58:03;;;;;;;2.60;1.80;;;;;;;12.39;90.50;102472.34;4988201;28;20035;-71
2022/07/06 01:00:29;;;;;;;6.82;2.67;;;;;;;12.50;89.89;102471.00;4988000;28;20051;-72
2022/07/06 01:02:55;;;;;;;6.95;1.90;;;;;;;12.50;89.74;102463.88;4989457;28;20027;-72
2022/07/06 01:05:22;;;;;;;5.75;2.10;;;;;;;12.46;90.22;102464.94;4988492;28;20046;-72
2022/07/06 01:07:51;;;;;;;4.68;2.50;;;;;;;12.33;90.74;102469.09;4988764;28;20035;-73
2022/07/06 01:10:23;;;;;;;5.57;2.25;;;;;;;12.33;91.27;102461.94;4989560;28;20350;-72
2022/07/06 01:12:49;;;;;;;2.65;2.20;;;;;;;12.30;91.36;102462.09;4972300;28;20035;-72
2022/07/06 01:15:23;;;;;;;4.18;2.17;;;;;;;12.38;91.09;102464.41;4988645;28;20034;-72
2022/07/06 01:17:50;;;;;;;4.82;2.03;;;;;;;12.15;91.69;102466.31;4989211;28;20039;-71
2022/07/06 01:20:26;;;;;;;7.07;2.30;;;;;;;12.13;91.48;102472.66;4988022;28;20101;-73
2022/07/06 01:22:58;;;;;;;6.95;2.20;;;;;;;12.07;92.35;102473.78;4987898;28;20035;-71
2022/07/06 01:25:27;;;;;;;5.65;1.90;;;;;;;12.10;92.65;102465.66;4988105;28;20058;-72
2022/07/06 01:27:53;;;;;;;7.25;2.50;;;;;;;12.13;92.44;102468.16;4987607;28;20023;-72
2022/07/06 01:30:19;;;;;;;3.80;2.20;;;;;;;12.11;92.36;102474.53;5004088;28;20065;-73
2022/07/06 01:32:46;;;;;;;7.13;2.40;;;;;;;12.21;91.98;102464.31;5003596;28;20065;-72
2022/07/06 01:35:14;;;;;;;6.05;2.92;;;;;;;12.05;91.92;102473.00;4988511;28;20027;-73
2022/07/06 01:37:46;;;;;;;4.37;2.20;;;;;;;11.77;93.23;102472.41;4988973;28;20038;-72
2022/07/06 01:40:13;;;;;;;7.13;2.40;;;;;;;11.79;93.29;102468.72;4994537;28;20037;-74
2022/07/06 01:42:39;;;;;;;5.28;2.40;;;;;;;11.78;93.66;102466.97;4990854;28;20450;-71
2022/07/06 01:45:06;;;;;;;4.95;2.05;;;;;;;11.70;94.19;102465.56;5006651;28;20019;-72
2022/07/06 01:47:33;;;;;;;5.90;2.47;;;;;;;11.88;92.90;102463.00;5006291;28;20114;-71
2022/07/06 01:50:00;;;;;;;5.50;2.33;;;;;;;11.78;93.57;102466.97;5005687;28;20358;-72
2022/07/06 01:52:28;;;;;;;4.22;2.45;;;;;;;11.78;93.94;102464.31;4988922;28;20050;-71
2022/07/06 01:54:57;;;;;;;4.80;3.03;;;;;;;11.78;93.59;102458.97;5002191;28;20042;-72
2022/07/06 01:57:23;;;;;;;7.78;2.47;;;;;;;11.65;94.27;102458.63;4978357;28;20075;-72
2022/07/06 01:59:48;;;;;;;5.03;2.03;;;;;;;11.59;94.44;102461.53;4986911;28;20042;-72
2022/07/06 02:02:18;;;;;;;5.22;2.63;;;;;;;11.67;94.09;102458.56;4986944;28;20051;-72
2022/07/06 02:04:44;;;;;;;3.70;1.95;;;;;;;11.56;94.02;102450.13;4987863;28;20053;-74
2022/07/06 02:07:10;;;;;;;2.78;1.80;;;;;;;11.34;92.62;102452.78;4971696;28;20132;-72
2022/07/06 02:09:36;;;;;;;4.80;2.33;;;;;;;11.36;93.54;102462.50;4971227;28;20104;-72
2022/07/06 02:12:02;;;;;;;3.63;1.83;;;;;;;11.34;93.69;102459.00;4955794;28;20031;-72
2022/07/06 02:14:28;;;;;;;4.47;2.55;;;;;;;11.27;94.22;102459.31;4971257;28;20040;-72
2022/07/06 02:16:54;;;;;;;4.30;2.55;;;;;;;11.25;94.51;102466.53;4972663;28;20038;-72
2022/07/06 02:19:19;;;;;;;5.13;2.20;;;;;;;11.12;92.83;102475.03;4971193;28;20501;-72
2022/07/06 02:21:45;;;;;;;4.25;2.20;;;;;;;11.20;92.90;102469.38;4970529;28;20033;-73
2022/07/06 02:24:11;;;;;;;6.50;3.30;;;;;;;11.23;95.27;102473.72;4954432;28;20051;-73
2022/07/06 02:26:38;;;;;;;4.40;2.33;;;;;;;11.34;94.86;102472.34;4986734;28;20019;-72
2022/07/06 02:29:04;;;;;;;3.20;2.50;;;;;;;11.19;96.22;102472.97;4970225;28;20045;-72
2022/07/06 02:31:29;;;;;;;3.00;2.15;;;;;;;11.22;95.47;102469.31;4970902;28;20031;-72
2022/07/06 02:33:55;;;;;;;6.00;2.42;;;;;;;11.41;94.95;102470.31;4970967;28;20121;-72
2022/07/06 02:36:21;;;;;;;8.27;2.60;;;;;;;11.43;96.43;102476.47;4987497;28;20055;-73
2022/07/06 02:38:46;;;;;;;3.10;2.30;;;;;;;11.38;97.70;102465.97;4970981;28;20023;-72
2022/07/06 02:41:12;;;;;;;8.95;2.58;;;;;;;11.30;97.75;102469.91;5000181;28;20049;-72
2022/07/06 02:43:39;;;;;;;3.30;2.28;;;;;;;11.39;96.65;102467.69;5009626;28;20053;-72
2022/07/06 02:46:05;;;;;;;7.05;3.00;;;;;;;11.35;97.78;102474.13;4993247;28;20034;-71
2022/07/06 02:48:30;;;;;;;7.38;2.83;;;;;;;11.45;97.70;102474.63;5010118;28;20054;-71
2022/07/06 02:50:56;;;;;;;6.03;2.75;;;;;;;11.40;98.49;102468.59;5004132;28;20049;-71
2022/07/06 02:53:25;;;;;;;7.00;2.92;;;;;;;11.39;98.88;102472.16;4989140;28;20058;-72
2022/07/06 02:55:53;;;;;;;6.25;3.08;;;;;;;11.36;98.55;102481.19;5005619;28;20053;-71
2022/07/06 02:58:19;;;;;;;6.47;2.38;;;;;;;11.45;98.62;102471.06;4971483;28;20046;-72
2022/07/06 03:00:45;;;;;;;4.93;2.78;;;;;;;11.46;98.37;102464.78;4970707;28;20035;-73
2022/07/06 03:03:11;;;;;;;3.88;2.85;;;;;;;11.40;99.43;102474.81;4970518;28;20031;-72
2022/07/06 03:05:37;;;;;;;6.18;2.97;;;;;;;11.49;99.30;102470.00;4970804;28;20035;-72
2022/07/06 03:08:03;;;;;;;12.57;2.97;;;;;;;11.40;99.79;102473.94;4954227;28;20062;-72
2022/07/06 03:10:30;;;;;;;8.45;2.97;;;;;;;11.48;98.93;102473.59;4985854;28;20051;-73
2022/07/06 03:12:56;;;;;;;10.23;2.85;;;;;;;11.46;98.87;102476.34;4971538;28;20035;-72
2022/07/06 03:15:21;;;;;;;10.32;3.97;;;;;;;11.47;99.04;102482.56;4953874;28;20048;-71
2022/07/06 03:17:48;;;;;;;6.05;2.92;;;;;;;11.54;98.44;102484.91;4970316;28;20054;-72
2022/07/06 03:20:17;;;;;;;5.47;2.63;;;;;;;11.37;99.05;102490.94;4986023;28;20346;-72
2022/07/06 03:22:45;;;;;;;6.22;2.88;;;;;;;11.44;98.86;102491.53;4971297;28;20046;-72
2022/07/06 03:25:13;;;;;;;8.98;3.38;;;;;;;11.39;99.25;102493.53;4954754;28;20094;-72
2022/07/06 03:27:40;;;;;;;9.73;3.67;;;;;;;11.22;98.83;102494.22;4986093;28;20055;-72
2022/07/06 03:30:06;;;;;;;7.97;3.20;;;;;;;11.08;99.50;102500.09;4970421;28;20041;-73
2022/07/06 03:32:33;;;;;;;12.18;4.43;;;;;;;11.07;99.89;102501.03;4970054;28;20051;-73
2022/07/06 03:35:02;;;;;;;11.52;3.70;;;;;;;11.04;99.23;102503.81;4954415;28;20367;-72
2022/07/06 03:37:27;;;;;;;7.57;3.67;;;;;;;11.19;98.82;102496.13;4954077;28;20023;-72
2022/07/06 03:39:53;;;;;;;10.73;3.75;;;;;;;11.22;98.73;102504.03;4972959;28;20033;-71
2022/07/06 03:42:19;;;;;;;8.07;3.97;;;;;;;11.30;99.25;102502.81;4988581;28;20102;-72
2022/07/06 03:44:45;;;;;;;5.72;3.47;;;;;;;11.23;98.63;102495.09;4988794;28;20043;-71
2022/07/06 03:47:11;;;;;;;6.47;4.13;;;;;;;11.24;99.58;102492.34;4989667;28;20140;-71
2022/07/06 03:49:37;;;;;;;7.53;3.67;;;;;;;11.34;100.00;102490.19;4988688;28;20034;-72
2022/07/06 03:52:03;;;;;;;11.18;4.35;;;;;;;11.45;99.12;102497.78;4989538;28;20095;-72
2022/07/06 03:54:37;;;;;;;11.25;4.10;;;;;;;11.64;98.88;102496.06;4989646;28;20034;-72
2022/07/06 03:57:04;;;;;;;7.68;4.10;;;;;;;11.80;98.09;102499.00;4989050;28;20054;-72
2022/07/06 03:59:30;;;;;;;6.00;3.80;;;;;;;11.88;98.19;102484.41;4989475;28;20058;-73
2022/07/06 04:01:56;;;;;;;4.78;3.88;;;;;;;11.95;97.72;102494.81;5005318;28;20090;-72
2022/07/06 04:04:24;;;;;;;9.82;4.15;;;;;;;12.15;97.46;102494.88;4990108;28;20034;-72
2022/07/06 04:06:50;;;;;;;6.05;3.75;;;;;;;12.32;96.91;102484.28;4989863;28;20065;-72
2022/07/06 04:09:17;;;;;;;9.05;3.78;;;;;;;12.46;96.35;102490.84;4988174;28;20045;-72
2022/07/06 04:11:46;;;;;;;9.60;5.75;;;;;;;12.36;95.82;102485.03;5004041;28;20023;-72
2022/07/06 04:14:12;;;;;;;8.27;3.90;;;;;;;12.48;95.21;102484.47;5004751;28;20038;-73
2022/07/06 04:16:37;;;;;;;5.68;3.35;;;;;;;12.66;94.77;102480.97;4988447;28;20053;-73
2022/07/06 04:19:04;;;;;;;5.43;3.47;;;;;;;12.75;94.10;102484.13;5004553;28;20034;-73
2022/07/06 04:21:30;;;;;;;8.40;3.20;;;;;;;12.87;93.19;102479.09;5003804;28;20066;-72
2022/07/06 04:23:55;;;;;;;3.97;2.88;;;;;;;12.95;92.42;102482.28;4988890;28;20243;-73
2022/07/06 04:26:21;;;;;;;6.82;3.03;;;;;;;13.07;92.75;102471.94;4988469;28;20042;-73
2022/07/06 04:28:47;;;;;;;6.28;3.83;;;;;;;13.13;91.66;102480.53;4985925;28;20373;-73
2022/07/06 04:31:15;;;;;;;3.08;2.50;;;;;;;13.23;91.12;102469.41;4986171;28;20039;-73
2022/07/06 04:33:46;;;;;;;5.38;2.40;;;;;;;13.33;91.58;102471.56;4987149;28;20037;-72
2022/07/06 04:36:18;;;;;;;11.90;2.80;;;;;;;13.46;90.55;102469.16;4987562;28;20034;-72
2022/07/06 04:38:48;;;;;;;7.65;3.13;;;;;;;13.53;89.88;102473.28;4987633;28;20049;-73
2022/07/06 04:41:16;;;;;;;11.52;2.95;;;;;;;13.51;89.53;102466.25;5002088;28;20026;-71
2022/07/06 04:43:43;;;;;;;4.20;2.47;;;;;;;13.75;89.07;102465.00;4971471;28;20046;-72
2022/07/06 04:46:13;;;;;;;3.70;2.45;;;;;;;13.89;88.92;102464.31;4988146;28;20042;-72
2022/07/06 04:48:42;;;;;;;9.32;3.78;;;;;;;13.80;88.64;102462.09;4987709;28;20032;-74
2022/07/06 04:51:11;;;;;;;9.10;2.58;;;;;;;13.87;88.51;102461.72;4988817;28;20065;-72
2022/07/06 04:53:37;;;;;;;8.50;3.30;;;;;;;13.99;87.97;102466.44;4971103;28;20043;-72
2022/07/06 04:56:03;;;;;;;5.43;2.95;;;;;;;14.10;87.35;102465.00;4971481;28;20035;-71
2022/07/06 04:58:30;;;;;;;13.55;3.40;;;;;;;14.20;86.64;102474.31;4987940;28;20114;-72
2022/07/06 05:00:59;;;;;;;8.55;3.00;;;;;;;14.21;86.02;102470.72;4973939;28;20045;-73
2022/07/06 05:03:25;;;;;;;9.52;2.67;;;;;;;14.30;86.48;102477.38;4989086;28;20038;-73
2022/07/06 05:05:54;;;;;;;7.72;3.33;;;;;;;15.40;81.98;102480.25;4970337;28;20057;-68
2022/07/06 05:08:20;;;;;;;11.75;3.42;;;;;;;14.95;82.04;102471.16;4983203;28;20045;-72
2022/07/06 05:10:46;;;;;;;7.97;3.42;;;;;;;14.78;83.34;102479.28;4987157;28;20026;-73
2022/07/06 05:13:11;;;;;;;9.80;3.28;;;;;;;15.00;83.13;102477.13;4970566;28;20055;-73
2022/07/06 05:15:37;;;;;;;6.57;3.25;;;;;;;15.11;83.38;102476.56;4987266;28;20050;-72
2022/07/06 05:18:03;;;;;;;6.45;2.78;;;;;;;15.07;82.56;102479.50;4987789;28;20046;-73
2022/07/06 05:20:32;;;;;;;9.93;3.28;;;;;;;14.99;82.13;102478.09;4950713;28;20066;-70
2022/07/06 05:22:58;;;;;;;11.98;3.13;;;;;;;14.98;82.53;102483.56;4943990;29;20787;-68
2022/07/06 05:25:28;;;;;;;7.18;2.67;;;;;;;15.03;83.37;102482.34;4959185;28;20043;-69
2022/07/06 05:27:54;;;;;;;9.93;3.63;;;;;;;15.08;83.64;102489.28;4943532;29;20042;-69
2022/07/06 05:30:20;;;;;;;4.70;2.80;;;;;;;15.14;82.36;102489.81;4945301;28;20043;-69
2022/07/06 05:32:45;;;;;;;11.57;2.92;;;;;;;15.00;84.00;102495.94;4945426;28;20460;-69
2022/07/06 05:35:11;;;;;;;5.72;2.72;;;;;;;15.33;83.24;102499.53;4963247;28;20051;-69
2022/07/06 05:37:37;;;;;;;7.30;3.35;;;;;;;15.32;81.81;102498.66;4947398;29;20035;-69
2022/07/06 05:40:04;;;;;;;5.15;3.35;;;;;;;15.26;83.13;102498.97;4969902;28;20066;-69
2022/07/06 05:42:30;;;;;;;5.90;3.05;;;;;;;15.27;83.07;102498.91;4970528;28;20049;-70
2022/07/06 05:44:56;;;;;;;5.38;2.55;;;;;;;15.53;82.12;102499.25;4968777;28;20043;-70
2022/07/06 05:50:14;;;;;;;5.93;3.20;;;;;;;15.54;82.41;102493.78;4953367;28;20436;-68
2022/07/06 05:53:02;;;;;;;8.60;2.65;;;;;;;15.55;81.26;102500.00;4969151;28;20177;-70
2022/07/06 05:55:30;;;;;;;;;;;;;;;15.61;81.59;102502.34;4969109;28;20479;-68
2022/07/06 05:57:58;;;;;;;6.25;2.83;;;;;;;15.58;81.19;102507.91;4967126;28;20711;-71
2022/07/06 06:00:29;;;;;;;5.38;2.65;;;;;;;15.78;80.37;102510.34;4951435;28;20043;-68
2022/07/06 06:03:00;;;;;;;7.15;2.47;;;;;;;15.87;80.96;102502.69;4967376;28;20496;-68
2022/07/06 06:05:26;;;;;;;4.40;2.30;;;;;;;16.12;78.24;102505.66;4967706;28;20038;-68
2022/07/06 06:07:58;;;;;;;9.48;3.17;;;;;;;16.24;79.52;102512.97;4952678;28;20051;-69
2022/07/06 06:10:25;;;;;;;8.88;2.90;;;;;;;16.36;77.98;102505.97;4969780;28;20546;-69
2022/07/06 06:12:57;;;;;;;4.35;2.50;;;;;;;16.14;79.72;102505.56;4967505;28;20070;-68
2022/07/06 06:15:25;;;;;;;7.95;2.38;;;;;;;16.55;78.08;102505.72;4968374;28;20043;-68
2022/07/06 06:17:54;;;;;;;6.55;2.70;;;;;;;16.74;76.82;102500.09;4968089;28;20069;-69
2022/07/06 06:20:20;;;;;;;5.57;2.30;;;;;;;17.16;75.83;102506.38;4951569;28;20043;-69
2022/07/06 06:22:48;;;;;;;4.60;1.50;;;;;;;17.23;74.75;102502.34;4968808;28;20046;-68
2022/07/06 06:25:15;;;;;;;10.45;2.40;;;;;;;17.51;72.30;102499.56;4968203;28;20043;-69
2022/07/06 06:27:53;;;;;;;7.80;1.85;;;;;;;18.15;69.34;102509.72;4968947;28;20077;-69
2022/07/06 06:30:19;;;;;;;7.15;3.05;;;;;;;17.91;70.90;102512.25;4967472;28;20059;-68
2022/07/06 06:32:45;;;;;;;4.40;1.98;;;;;;;17.48;72.51;102509.69;4968993;28;20403;-68
2022/07/06 06:35:16;;;;;;;4.43;1.83;;;;;;;17.60;72.84;102508.88;4967979;28;20142;-68
2022/07/06 06:37:42;;;;;;;5.38;2.28;;;;;;;17.68;73.46;102502.97;4977387;28;20046;-73
2022/07/06 06:40:08;;;;;;;8.27;2.35;;;;;;;17.97;72.23;102509.13;4990042;28;20049;-72
2022/07/06 06:42:37;;;;;;;2.40;1.63;;;;;;;18.13;70.89;102512.53;4989907;28;20058;-72
2022/07/06 06:45:07;;;;;;;7.40;1.95;;;;;;;18.18;71.11;102507.69;4989905;28;20023;-72
2022/07/06 06:47:33;;;;;;;10.43;2.10;;;;;;;18.99;68.85;102503.81;4973570;28;20026;-72
2022/07/06 06:50:04;;;;;;;3.55;1.90;;;;;;;20.27;66.42;102495.97;4973506;28;20130;-72
2022/07/06 06:52:30;;;;;;;5.60;1.92;;;;;;;20.37;62.84;102500.53;4990452;28;20042;-72
2022/07/06 06:54:55;;;;;;;4.43;2.05;;;;;;;20.19;64.10;102499.28;5005814;28;20104;-72
2022/07/06 06:57:21;;;;;;;9.27;1.90;;;;;;;21.14;61.17;102491.75;4980856;28;20035;-72
2022/07/06 06:59:47;;;;;;;3.30;1.42;;;;;;;21.04;59.44;102494.34;4970450;28;20324;-73
2022/07/06 07:02:12;;;;;;;3.70;1.50;;;;;;;21.11;60.11;102498.25;4970546;28;20034;-73
2022/07/06 07:04:38;;;;;;;4.55;1.52;;;;;;;21.08;61.87;102512.06;4969860;28;20051;-72
2022/07/06 07:07:03;;;;;;;8.90;1.10;;;;;;;20.93;59.28;102508.78;4970278;28;20049;-72
2022/07/06 07:09:29;;;;;;;4.07;0.90;;;;;;;20.58;59.22;102514.31;4970605;28;20023;-72
2022/07/06 07:11:55;;;;;;;3.45;0.82;;;;;;;20.97;58.61;102506.66;4954963;28;20027;-72
2022/07/06 07:14:21;;;;;;;3.40;0.80;;;;;;;20.67;58.41;102518.97;4971317;28;20035;-72
2022/07/06 07:16:46;;;;;;;4.22;0.95;;;;;;;20.67;58.82;102512.69;4954608;28;20046;-73
2022/07/06 07:19:12;;;;;;;2.20;0.90;;;;;;;20.25;58.07;102517.78;4970994;28;20034;-72
2022/07/06 07:21:37;;;;;;;1.13;0.80;;;;;;;20.88;58.81;102516.41;4971546;28;20062;-72
2022/07/06 07:24:03;;;;;;;2.58;0.90;;;;;;;21.39;56.54;102517.75;4971484;28;20023;-73
2022/07/06 07:26:29;;;;;;;4.22;0.90;;;;;;;21.18;56.61;102515.75;4986384;28;20035;-72
2022/07/06 07:28:54;;;;;;;4.00;0.82;;;;;;;20.99;55.96;102526.41;4986686;28;20035;-72
2022/07/06 07:31:20;;;;;;;8.63;0.90;;;;;;;20.55;57.29;102527.22;4970705;28;20035;-72
2022/07/06 07:33:45;;;;;;;3.00;1.08;;;;;;;21.04;55.79;102516.03;4970576;28;20059;-72
2022/07/06 07:36:11;;;;;;;2.78;1.05;;;;;;;21.71;59.86;102517.78;4970199;28;20034;-71
2022/07/06 07:38:37;;;;;;;3.45;0.90;;;;;;;21.34;55.50;102520.84;4971472;28;20027;-72
2022/07/06 07:41:02;;;;;;;2.17;0.80;;;;;;;21.95;53.58;102517.56;4986443;28;20054;-68
2022/07/06 07:43:28;;;;;;;1.90;0.77;;;;;;;22.88;51.33;102511.28;4998797;28;20026;-72
2022/07/06 07:45:54;;;;;;;2.45;0.70;;;;;;;22.04;54.57;102516.78;5009861;28;20039;-72
2022/07/06 07:48:20;;;;;;;4.75;0.88;;;;;;;22.40;53.47;102517.34;5012062;28;20042;-72
2022/07/06 07:50:46;;;;;;;1.85;0.70;;;;;;;22.52;52.10;102510.81;5010795;28;20110;-72
2022/07/06 07:53:11;;;;;;;2.15;0.80;;;;;;;22.87;51.53;102504.97;5010766;28;20054;-72
2022/07/06 07:55:37;;;;;;;8.15;0.93;;;;;;;21.50;52.32;102508.72;5010205;28;20056;-72
2022/07/06 07:58:02;;;;;;;3.65;1.00;;;;;;;20.12;59.78;102516.97;4994888;28;20027;-72
2022/07/06 08:00:28;;;;;;;2.58;1.25;;;;;;;20.23;58.18;102508.03;4990972;28;20045;-73
2022/07/06 08:02:56;;;;;;;1.52;0.70;;;;;;;20.10;56.73;102518.97;4990494;28;20033;-72
2022/07/06 08:05:25;;;;;;;5.03;1.15;;;;;;;21.76;54.11;102509.25;4990891;28;20022;-72
2022/07/06 08:07:50;;;;;;;3.60;1.17;;;;;;;21.77;53.97;102505.53;4990684;28;20026;-72
2022/07/06 08:10:16;;;;;;;4.50;0.93;;;;;;;22.14;52.75;102500.56;4989977;28;20041;-72
2022/07/06 08:12:41;;;;;;;3.92;0.70;;;;;;;20.87;53.15;102500.25;4990760;28;20031;-73
2022/07/06 08:15:07;;;;;;;1.85;0.60;;;;;;;19.77;53.33;102509.72;4989790;28;20067;-73
2022/07/06 08:17:33;;;;;;;1.30;0.57;;;;;;;21.34;50.68;102496.41;4990764;28;20038;-71
2022/07/06 08:20:00;;;;;;;2.45;0.60;;;;;;;21.79;48.50;102500.81;4990753;28;20042;-73
2022/07/06 08:22:26;;;;;;;3.38;0.63;;;;;;;21.80;47.69;102505.28;5006298;28;20066;-72
2022/07/06 08:24:55;;;;;;;6.32;0.70;;;;;;;21.79;51.99;102500.81;4989844;28;20057;-72
2022/07/06 08:27:21;;;;;;;4.28;0.52;;;;;;;21.88;48.52;102497.31;4990629;28;20054;-72
2022/07/06 08:29:46;;;;;;;4.35;0.55;;;;;;;22.35;46.73;102501.44;4991912;28;20370;-72
2022/07/06 08:32:12;;;;;;;2.17;0.50;;;;;;;22.59;48.20;102495.72;4991524;28;20047;-73
2022/07/06 08:34:38;;;;;;;3.28;0.73;;;;;;;23.32;42.34;102492.84;4991719;28;20069;-73
2022/07/06 08:37:03;;;;;;;1.33;0.50;;;;;;;22.59;44.32;102500.25;5008101;28;20050;-73
2022/07/06 08:39:29;;;;;;;5.10;0.70;;;;;;;22.41;43.52;102500.88;4992573;28;20050;-72
2022/07/06 08:41:56;;;;;;;5.70;1.02;;;;;;;21.73;48.38;102491.34;4992500;28;20038;-71
2022/07/06 08:44:23;;;;;;;4.32;0.80;;;;;;;22.53;46.13;102485.34;4991735;28;20039;-72
2022/07/06 08:46:51;;;;;;;0.88;0.57;;;;;;;23.10;47.25;102485.78;5008367;28;20038;-73
2022/07/06 08:49:18;;;;;;;3.22;0.70;;;;;;;23.67;42.86;102481.44;5008483;28;20094;-73
2022/07/06 08:51:47;;;;;;;3.97;0.63;;;;;;;23.29;43.95;102487.66;4981517;28;20039;-73
2022/07/06 08:54:14;;;;;;;1.48;0.50;;;;;;;24.56;42.20;102482.06;4973272;28;20035;-73
2022/07/06 08:56:40;;;;;;;0.98;0.40;;;;;;;24.32;43.31;102487.97;4973627;28;20131;-72
2022/07/06 08:59:08;;;;;;;1.38;0.50;;;;;;;24.56;42.99;102482.06;4973675;28;20050;-71
2022/07/06 09:01:38;;;;;;;4.43;0.75;;;;;;;23.76;43.46;102488.75;4973376;28;20019;-72
2022/07/06 09:04:08;;;;;;;3.67;0.65;;;;;;;23.67;42.89;102485.03;4973573;28;20039;-72
2022/07/06 09:06:46;;;;;;;0.90;0.68;;;;;;;22.33;44.58;102484.38;4971509;28;20071;-73
2022/07/06 09:09:20;;;;;;;1.38;0.45;;;;;;;22.04;43.63;102494.16;4975217;28;20043;-73
2022/07/06 09:11:45;;;;;;;2.40;0.60;;;;;;;21.39;48.80;102488.75;4974556;28;20046;-73
2022/07/06 09:14:11;;;;;;;1.65;0.60;;;;;;;21.55;47.64;102490.19;4974083;28;20027;-73
2022/07/06 09:16:40;;;;;;;0.90;0.40;;;;;;;21.16;45.80;102485.19;4974186;28;20039;-73
2022/07/06 09:19:07;;;;;;;1.55;0.43;;;;;;;20.86;46.76;102487.69;4975012;28;20039;-73
2022/07/06 09:21:36;;;;;;;4.10;1.05;;;;;;;21.23;47.89;102487.38;4991321;28;20037;-72
2022/07/06 09:24:05;;;;;;;4.72;0.70;;;;;;;21.58;46.58;102493.47;4975095;28;20095;-73
2022/07/06 09:26:32;;;;;;;2.30;0.68;;;;;;;21.14;47.59;102487.16;4976155;28;20047;-72
2022/07/06 09:28:59;;;;;;;4.78;0.57;;;;;;;22.83;46.18;102483.63;4975527;28;20035;-74
2022/07/06 09:31:25;;;;;;;3.00;0.90;;;;;;;22.74;45.87;102497.06;4990310;28;20050;-73
2022/07/06 09:34:05;;;;;;;2.88;0.63;;;;;;;22.53;42.93;102490.78;4989716;28;20043;-73
2022/07/06 09:36:45;;;;;;;1.60;0.47;;;;;;;21.50;43.98;102485.13;4974210;28;20034;-73
2022/07/06 09:39:28;;;;;;;1.30;0.50;;;;;;;21.13;46.11;102493.56;4973388;28;20050;-72
2022/07/06 09:42:03;;;;;;;1.50;0.60;;;;;;;20.91;44.78;102499.03;4974464;28;20039;-73
2022/07/06 09:44:35;;;;;;;1.70;0.50;;;;;;;20.78;43.74;102501.84;4973514;28;20035;-72
2022/07/06 09:47:03;;;;;;;;;;;;;;;21.23;43.86;102503.66;4973428;28;20031;-72
2022/07/06 09:49:29;;;;;;;2.13;0.60;;;;;;;21.25;44.31;102491.72;4972684;28;19911;-73
2022/07/06 09:51:58;;;;;;;1.83;0.50;;;;;;;21.57;42.53;102497.19;4973076;28;20047;-76
2022/07/06 09:54:25;;;;;;;2.58;0.60;;;;;;;21.49;49.38;102498.81;4955882;28;20059;-73
2022/07/06 09:57:02;;;;;;;3.63;0.90;;;;;;;21.77;48.09;102498.22;4978846;28;20062;-72
2022/07/06 09:59:29;;;;;;;1.67;1.00;;;;;;;22.07;42.24;102500.19;4992450;28;20043;-72
2022/07/06 10:02:06;;;;;;;2.65;0.70;;;;;;;22.07;42.82;102502.91;4992329;28;20030;-72
2022/07/06 10:04:32;;;;;;;0.82;0.50;;;;;;;22.14;43.73;102506.88;4991499;28;20029;-73
2022/07/06 10:07:01;;;;;;;4.50;0.50;;;;;;;21.95;41.87;102507.53;4992447;28;20069;-72
2022/07/06 10:09:29;;;;;;;2.90;0.98;;;;;;;21.87;42.39;102506.47;4991471;28;20254;-72
2022/07/06 10:12:02;;;;;;;2.47;0.60;;;;;;;21.88;43.31;102508.19;4991607;28;20077;-72
2022/07/06 10:14:30;;;;;;;1.50;0.45;;;;;;;21.60;43.44;102501.53;4991751;28;20049;-72
2022/07/06 10:17:01;;;;;;;2.05;0.82;;;;;;;22.20;41.88;102503.63;4991780;28;20259;-72
2022/07/06 10:19:29;;;;;;;0.85;0.47;;;;;;;23.11;45.04;102501.09;4991109;28;20086;-72
2022/07/06 10:21:58;;;;;;;1.23;0.47;;;;;;;23.13;41.16;102496.34;4991258;28;20062;-72
2022/07/06 10:24:27;;;;;;;1.00;0.60;;;;;;;23.22;40.63;102499.13;4992453;28;20066;-72
2022/07/06 10:26:54;;;;;;;4.35;0.60;;;;;;;23.03;41.22;102504.50;4992004;28;20066;-72
2022/07/06 10:29:21;;;;;;;2.65;0.55;;;;;;;22.71;41.09;102516.38;4975001;28;20058;-73
2022/07/06 10:31:48;;;;;;;0.98;0.70;;;;;;;22.27;41.75;102516.66;4974935;28;20042;-73
2022/07/06 10:34:17;;;;;;;1.55;0.43;;;;;;;21.88;41.75;102517.19;4991350;28;20041;-72
2022/07/06 10:36:55;;;;;;;1.58;0.40;;;;;;;21.72;44.29;102514.06;4991283;28;20113;-73
2022/07/06 10:42:40;;;;;;;1.35;0.40;;;;;;;22.78;38.44;102507.66;4975424;28;20303;-72
2022/07/06 10:45:06;;;;;;;0.98;0.50;;;;;;;22.97;41.33;102500.47;4969198;28;20030;-72
2022/07/06 10:47:32;;;;;;;1.65;0.43;;;;;;;23.42;40.26;102491.00;4986055;28;20034;-73
2022/07/06 10:50:02;;;;;;;3.28;0.50;;;;;;;23.66;39.17;102490.63;4984934;28;20040;-72
2022/07/06 10:52:47;;;;;;;2.60;0.60;;;;;;;24.10;41.61;102480.09;4979955;28;20031;-72
2022/07/06 10:55:33;;;;;;;2.83;0.65;;;;;;;24.05;41.14;102483.31;4984425;28;20090;-72
2022/07/06 10:58:02;;;;;;;0.98;0.63;;;;;;;23.11;40.10;102492.94;4990942;28;20097;-72
2022/07/06 11:00:52;;;;;;;0.70;0.45;;;;;;;23.94;39.70;102481.56;4977765;28;20039;-69
2022/07/06 11:03:35;;;;;;;4.93;0.80;;;;;;;23.69;40.04;102483.00;4941230;28;20051;-69
2022/07/06 11:06:05;;;;;;;1.48;0.50;;;;;;;23.93;40.41;102481.72;4963430;28;20078;-70
2022/07/06 11:08:59;;;;;;;4.03;0.45;;;;;;;23.43;42.59;102471.78;4947554;28;20066;-68
2022/07/06 11:11:37;;;;;;;1.35;0.50;;;;;;;23.29;38.09;102487.66;4947907;28;20114;-67
2022/07/06 11:14:09;;;;;;;1.65;0.73;;;;;;;23.95;37.54;102475.13;4946681;29;20043;-67
2022/07/06 11:16:46;;;;;;;4.30;0.63;;;;;;;23.91;39.36;102465.53;4948352;28;20043;-67
2022/07/06 11:19:25;;;;;;;1.88;0.50;;;;;;;24.45;42.55;102472.19;4945861;29;20124;-68
2022/07/06 11:22:05;;;;;;;2.15;0.55;;;;;;;24.35;36.77;102459.53;4948932;29;20043;-68
2022/07/06 11:24:34;;;;;;;0.98;0.40;;;;;;;24.13;41.43;102464.34;4947380;28;20043;-67
2022/07/06 11:27:00;;;;;;;1.15;0.40;;;;;;;24.34;37.19;102466.88;4946127;29;20058;-68
2022/07/06 11:29:28;;;;;;;0.63;0.40;;;;;;;23.95;39.00;102468.81;4948700;28;20113;-68
2022/07/06 11:31:56;;;;;;;1.77;0.70;;;;;;;24.24;39.11;102457.84;4964629;28;20110;-68
2022/07/06 11:34:27;;;;;;;0.75;0.50;;;;;;;24.02;38.39;102464.50;4932371;29;20051;-67